Alexandria, Virginia
Current Conditions -  °F | °C
As of 7:52 AM on Wednesday 22 Oct 2014 (Local Time) from KDCA Reporting Station
Moderate Rain Moderate Rain  
Wind Chill: 13°   Ceiling: 3000
Heat Index: 13°   Visibility: 5mi
Dew Point: 10°   Wind: 16mph
Humidity: 80%   Direction: 330°NNW
Pressure: 29.9"   Gusts: NA
Location:  38.8°N, 77.04°W
Report Text: KDCA 221152Z 33014KT 5SM RA SCT015 BKN030 OVC060 13/10 A2990 RMK AO2 SLP126 P0019 60038 70062 T01330100 10133 20128 51012
Loading
Personal Weather Stations






























Interactive Weather Map
Tropical Storm Tracking
New forecast layout! Learn more

10-Day Weather Forecast

Advertisements
Track Severe Weather on mobile